Time;durP1;ratioP1;P1;durP2;ratioP2;P2;SDS_P1;SDS_P2;PMS_P1;PMS_P2;Temp;Humidity;BMP_temperature;BMP_pressure;BME280_temperature;BME280_humidity;BME280_pressure;Samples;Min_cycle;Max_cycle;Signal;HPM_P1;HPM_P2
2022/04/27 00:01:13;;;;;;;24.07;9.93;;;6.30;99.90;;;;;;4916199;28;41023;-79
2022/04/27 00:03:39;;;;;;;12.07;9.33;;;6.30;99.90;;;;;;4921834;28;37215;-79
2022/04/27 00:06:05;;;;;;;15.93;9.80;;;6.30;99.90;;;;;;4935093;28;38253;-79
2022/04/27 00:08:31;;;;;;;16.30;10.20;;;6.20;99.90;;;;;;4919715;28;38274;-79
2022/04/27 00:10:57;;;;;;;19.13;9.93;;;6.20;99.90;;;;;;4949519;28;38972;-79
2022/04/27 00:13:23;;;;;;;18.90;10.30;;;6.20;99.90;;;;;;4954904;28;38401;-80
2022/04/27 00:15:49;;;;;;;15.43;9.50;;;6.20;99.90;;;;;;4953173;28;38400;-79
2022/04/27 00:18:15;;;;;;;13.33;9.70;;;6.10;99.90;;;;;;4944848;28;37920;-79
2022/04/27 00:20:41;;;;;;;15.13;9.60;;;6.10;99.90;;;;;;4929240;28;39226;-80
2022/04/27 00:23:08;;;;;;;13.93;9.73;;;6.00;99.90;;;;;;4951122;28;38095;-79
2022/04/27 00:25:35;;;;;;;14.80;10.53;;;6.00;99.90;;;;;;4912653;28;38008;-79
2022/04/27 00:28:01;;;;;;;15.97;9.97;;;5.90;99.90;;;;;;4936427;28;37763;-79
2022/04/27 00:30:27;;;;;;;11.93;9.83;;;5.90;99.90;;;;;;4929533;28;46763;-79
2022/04/27 00:32:53;;;;;;;16.77;10.90;;;5.80;99.90;;;;;;4952057;28;38445;-79
2022/04/27 00:35:19;;;;;;;15.03;10.20;;;5.80;99.90;;;;;;4953569;28;36307;-79
2022/04/27 00:37:45;;;;;;;14.80;9.97;;;5.80;99.90;;;;;;4942749;28;36239;-79
2022/04/27 00:40:12;;;;;;;16.63;10.83;;;5.70;99.90;;;;;;4958013;28;37540;-79
2022/04/27 00:42:38;;;;;;;16.30;9.70;;;5.70;99.90;;;;;;4943848;28;39204;-79
2022/04/27 00:45:05;;;;;;;16.33;10.57;;;5.60;99.90;;;;;;4953516;28;37234;-79
2022/04/27 00:47:31;;;;;;;18.20;10.50;;;5.60;99.90;;;;;;4939621;28;39831;-79
2022/04/27 00:49:58;;;;;;;15.47;10.93;;;5.50;99.90;;;;;;4941691;28;40808;-79
2022/04/27 00:52:24;;;;;;;14.40;10.50;;;5.50;99.90;;;;;;4957756;28;38354;-79
2022/04/27 00:54:52;;;;;;;18.23;10.13;;;5.50;99.90;;;;;;4936129;28;38273;-79
2022/04/27 00:57:27;;;;;;;19.37;10.80;;;5.50;99.90;;;;;;4951655;28;38509;-78
2022/04/27 00:59:53;;;;;;;16.97;11.00;;;5.50;99.90;;;;;;4954496;28;38851;-79
2022/04/27 01:02:20;;;;;;;14.87;10.50;;;5.40;99.90;;;;;;4955726;28;39445;-79
2022/04/27 01:04:47;;;;;;;16.83;11.13;;;5.40;99.90;;;;;;4953986;28;37366;-79
2022/04/27 01:07:13;;;;;;;15.87;10.50;;;5.40;99.90;;;;;;4957577;28;38452;-79
2022/04/27 01:09:40;;;;;;;16.30;11.00;;;5.40;99.90;;;;;;4953490;28;38585;-79
2022/04/27 01:12:07;;;;;;;18.27;11.07;;;5.30;99.90;;;;;;4956751;28;39160;-79
2022/04/27 01:14:50;;;;;;;13.97;10.47;;;5.30;99.90;;;;;;4928278;28;37813;-78
2022/04/27 01:17:16;;;;;;;14.63;9.87;;;5.30;99.90;;;;;;4934195;28;37941;-79
2022/04/27 01:19:43;;;;;;;16.97;10.70;;;5.20;99.90;;;;;;4950096;28;39921;-79
2022/04/27 01:22:09;;;;;;;17.17;11.63;;;5.20;99.90;;;;;;4955595;28;38195;-80
2022/04/27 01:24:36;;;;;;;16.53;11.73;;;5.20;99.90;;;;;;4928625;28;37404;-80
2022/04/27 01:27:03;;;;;;;13.83;10.57;;;5.20;99.90;;;;;;4930746;28;38376;-78
2022/04/27 01:29:29;;;;;;;15.20;11.00;;;5.20;99.90;;;;;;4923207;28;40730;-79
2022/04/27 01:31:56;;;;;;;14.53;10.57;;;5.20;99.90;;;;;;4955173;28;38067;-78
2022/04/27 01:34:23;;;;;;;16.80;11.53;;;5.20;99.90;;;;;;4953717;28;38013;-78
2022/04/27 01:36:49;;;;;;;15.63;10.47;;;5.10;99.90;;;;;;4962718;28;39893;-78
2022/04/27 01:39:15;;;;;;;15.73;10.77;;;5.10;99.90;;;;;;4938320;28;39186;-79
2022/04/27 01:41:41;;;;;;;15.80;11.40;;;5.10;99.90;;;;;;4959080;28;38575;-78
2022/04/27 01:44:07;;;;;;;15.80;10.97;;;5.00;99.90;;;;;;4938928;28;38959;-79
2022/04/27 01:46:33;;;;;;;17.87;12.03;;;5.00;99.90;;;;;;4956830;28;41107;-79
2022/04/27 01:49:00;;;;;;;16.50;11.10;;;5.00;99.90;;;;;;4957209;28;38508;-78
2022/04/27 01:54:16;;;;;;;15.80;11.40;;;4.90;99.90;;;;;;4950328;28;38625;-78
2022/04/27 01:56:47;;;;;;;15.40;10.90;;;4.90;99.90;;;;;;4958595;28;38868;-79
2022/04/27 01:59:14;;;;;;;16.93;11.40;;;4.90;99.90;;;;;;4940063;28;38792;-78
2022/04/27 02:01:40;;;;;;;20.27;11.33;;;4.90;99.90;;;;;;4946843;28;37151;-78
2022/04/27 02:04:07;;;;;;;19.00;11.27;;;4.80;99.90;;;;;;4935178;28;38048;-78
2022/04/27 02:06:36;;;;;;;16.60;11.37;;;4.70;99.90;;;;;;4939908;28;40188;-78
2022/04/27 02:09:06;;;;;;;15.40;10.87;;;4.70;99.90;;;;;;4934786;28;38109;-78
2022/04/27 02:11:33;;;;;;;15.80;11.73;;;4.60;99.90;;;;;;4959524;28;48777;-79
2022/04/27 02:13:59;;;;;;;17.40;10.30;;;4.70;99.90;;;;;;4956469;28;36861;-78
2022/04/27 02:16:27;;;;;;;16.23;11.23;;;4.60;99.90;;;;;;4954526;28;37971;-78
2022/04/27 02:18:55;;;;;;;18.70;11.80;;;4.70;99.90;;;;;;4961915;28;40394;-78
2022/04/27 02:21:22;;;;;;;18.20;11.93;;;4.60;99.90;;;;;;4940422;28;37781;-78
2022/04/27 02:23:49;;;;;;;18.30;12.03;;;4.60;99.90;;;;;;4937833;28;39123;-78
2022/04/27 02:26:16;;;;;;;19.90;12.70;;;4.60;99.90;;;;;;4937214;28;38027;-78
2022/04/27 02:28:42;;;;;;;18.53;12.83;;;4.60;99.90;;;;;;4959665;28;39539;-79
2022/04/27 02:31:08;;;;;;;17.83;11.93;;;4.60;99.90;;;;;;4945180;28;39454;-78
2022/04/27 02:33:35;;;;;;;16.70;11.47;;;4.50;99.90;;;;;;4953052;28;37369;-78
2022/04/27 02:36:01;;;;;;;17.37;11.57;;;4.50;99.90;;;;;;4948592;28;39019;-78
2022/04/27 02:38:27;;;;;;;20.67;12.90;;;4.50;99.90;;;;;;4956273;28;48458;-78
2022/04/27 02:40:54;;;;;;;16.33;11.40;;;4.50;99.90;;;;;;4937418;28;37486;-78
2022/04/27 02:43:21;;;;;;;19.23;12.93;;;4.40;99.90;;;;;;4946871;28;36919;-78
2022/04/27 02:45:48;;;;;;;17.77;12.90;;;4.40;99.90;;;;;;4930516;28;39502;-78
2022/04/27 02:48:15;;;;;;;18.33;12.97;;;4.40;99.90;;;;;;4928310;28;39485;-79
2022/04/27 02:53:25;;;;;;;19.40;12.93;;;4.30;99.90;;;;;;4935629;28;38474;-79
2022/04/27 02:55:52;;;;;;;21.47;13.77;;;4.30;99.90;;;;;;4934327;28;38864;-78
2022/04/27 02:58:18;;;;;;;18.17;11.60;;;4.30;99.90;;;;;;4930447;28;39413;-79
2022/04/27 03:00:45;;;;;;;18.70;12.47;;;4.30;99.90;;;;;;4936137;28;40229;-78
2022/04/27 03:03:12;;;;;;;16.87;12.80;;;4.30;99.90;;;;;;4957523;28;38388;-78
2022/04/27 03:05:38;;;;;;;20.33;13.07;;;4.20;99.90;;;;;;4951123;28;39788;-79
2022/04/27 03:08:05;;;;;;;18.90;12.70;;;4.30;99.90;;;;;;4950438;28;38612;-79
2022/04/27 03:10:31;;;;;;;22.13;12.47;;;4.20;99.90;;;;;;4952471;28;38289;-79
2022/04/27 03:12:59;;;;;;;19.30;12.90;;;4.10;99.90;;;;;;4955429;28;38357;-78
2022/04/27 03:15:25;;;;;;;22.30;12.73;;;4.10;99.90;;;;;;4935028;28;39552;-78
2022/04/27 03:18:16;;;;;;;19.00;12.90;;;4.10;99.90;;;;;;4953648;28;38682;-78
2022/04/27 03:20:37;;;;;;;22.73;13.83;;;4.10;99.90;;;;;;4955120;28;48925;-78
2022/04/27 03:23:03;;;;;;;20.97;13.23;;;4.10;99.90;;;;;;4942207;28;38891;-79
2022/04/27 03:25:29;;;;;;;20.93;13.40;;;4.10;99.90;;;;;;4952449;28;39474;-79
2022/04/27 03:27:55;;;;;;;17.40;12.60;;;4.10;99.90;;;;;;4949766;28;38677;-79
2022/04/27 03:30:21;;;;;;;21.43;14.47;;;4.10;99.90;;;;;;4939515;28;40389;-78
2022/04/27 03:32:47;;;;;;;19.27;12.83;;;4.10;99.90;;;;;;4932850;28;39039;-79
2022/04/27 03:35:14;;;;;;;23.53;13.80;;;4.10;99.90;;;;;;4928130;28;40196;-78
2022/04/27 03:37:40;;;;;;;19.20;13.33;;;4.10;99.90;;;;;;4936403;28;40326;-78
2022/04/27 03:40:09;;;;;;;16.97;11.23;;;4.00;99.90;;;;;;4956594;28;38703;-78
2022/04/27 03:42:35;;;;;;;16.93;12.40;;;4.00;99.90;;;;;;4943302;28;38568;-78
2022/04/27 03:45:01;;;;;;;18.17;12.40;;;4.00;99.90;;;;;;4957170;28;38811;-78
2022/04/27 03:47:28;;;;;;;20.47;12.33;;;3.90;99.90;;;;;;4937561;28;47060;-78
2022/04/27 03:49:58;;;;;;;20.33;13.33;;;3.90;99.90;;;;;;4960260;28;38380;-78
2022/04/27 03:52:25;;;;;;;18.07;12.50;;;3.90;99.90;;;;;;4941056;28;36351;-78
2022/04/27 03:54:51;;;;;;;18.50;12.60;;;3.90;99.90;;;;;;4947089;28;39467;-78
2022/04/27 03:57:17;;;;;;;20.33;11.97;;;3.80;99.90;;;;;;4950912;28;38842;-78
2022/04/27 03:59:43;;;;;;;20.03;12.30;;;3.80;99.90;;;;;;4957733;28;39505;-79
2022/04/27 04:02:09;;;;;;;19.87;12.87;;;3.80;99.90;;;;;;4955641;28;38126;-78
2022/04/27 04:04:38;;;;;;;21.57;13.93;;;3.80;99.90;;;;;;4942946;28;38581;-78
2022/04/27 04:07:04;;;;;;;19.00;12.77;;;3.80;99.90;;;;;;4951020;28;38747;-78
2022/04/27 04:09:30;;;;;;;24.43;13.00;;;3.80;99.90;;;;;;4950117;28;39452;-78
2022/04/27 04:11:57;;;;;;;20.33;12.87;;;3.80;99.90;;;;;;4913371;28;37897;-78
2022/04/27 04:14:23;;;;;;;27.93;13.53;;;3.80;99.90;;;;;;4922598;28;39640;-78
2022/04/27 04:16:49;;;;;;;19.40;12.97;;;3.80;99.90;;;;;;4936417;28;39027;-78
2022/04/27 04:19:15;;;;;;;21.70;12.93;;;3.80;99.90;;;;;;4924404;28;40237;-79
2022/04/27 04:21:41;;;;;;;20.03;13.73;;;3.80;99.90;;;;;;4917846;28;37111;-78
2022/04/27 04:24:07;;;;;;;19.60;13.10;;;3.70;99.90;;;;;;4922229;28;38067;-78
2022/04/27 04:29:18;;;;;;;21.07;12.40;;;3.60;99.90;;;;;;4940632;28;39171;-78
2022/04/27 04:31:44;;;;;;;19.37;13.30;;;3.60;99.90;;;;;;4932472;28;36868;-78
2022/04/27 04:34:10;;;;;;;22.43;13.97;;;3.60;99.90;;;;;;4916305;28;39407;-78
2022/04/27 04:36:36;;;;;;;20.40;14.00;;;3.60;99.90;;;;;;4921791;28;39211;-79
2022/04/27 04:39:02;;;;;;;22.03;14.53;;;3.70;99.90;;;;;;4931397;28;39059;-79
2022/04/27 04:41:28;;;;;;;19.93;13.00;;;3.70;99.90;;;;;;4939210;28;38858;-78
2022/04/27 04:43:55;;;;;;;21.50;12.53;;;3.70;99.90;;;;;;4912598;28;40149;-78
2022/04/27 04:46:21;;;;;;;18.43;13.00;;;3.70;99.90;;;;;;4910841;28;38174;-79
2022/04/27 04:48:47;;;;;;;22.37;14.97;;;3.70;99.90;;;;;;4922774;28;38597;-78
2022/04/27 04:51:13;;;;;;;21.47;12.30;;;3.70;99.90;;;;;;4923722;28;38497;-78
2022/04/27 04:53:39;;;;;;;24.70;14.20;;;3.70;99.90;;;;;;4947869;28;38761;-77
2022/04/27 04:56:05;;;;;;;19.50;12.10;;;3.80;99.90;;;;;;4917489;28;38899;-78
2022/04/27 04:58:31;;;;;;;21.37;13.10;;;3.80;99.90;;;;;;4921965;28;39090;-78
2022/04/27 05:00:58;;;;;;;20.20;13.17;;;3.90;99.90;;;;;;4937490;28;37384;-78
2022/04/27 05:03:25;;;;;;;20.17;14.30;;;4.00;99.90;;;;;;4921915;28;39116;-78
2022/04/27 05:05:51;;;;;;;20.63;13.70;;;4.00;99.90;;;;;;4913807;28;40150;-78
2022/04/27 05:08:17;;;;;;;22.07;14.10;;;4.10;99.90;;;;;;4912978;28;37538;-78
2022/04/27 05:10:43;;;;;;;25.70;15.47;;;4.20;99.90;;;;;;4922749;28;37735;-78
2022/04/27 05:13:09;;;;;;;25.83;15.70;;;4.20;99.90;;;;;;4939318;28;40293;-79
2022/04/27 05:15:35;;;;;;;25.73;16.43;;;4.40;99.90;;;;;;4958034;28;38732;-78
2022/04/27 05:18:01;;;;;;;28.20;15.70;;;4.60;99.90;;;;;;4937947;28;37211;-79
2022/04/27 05:20:27;;;;;;;27.57;16.00;;;4.80;99.90;;;;;;4940934;28;36511;-78
2022/04/27 05:22:54;;;;;;;35.00;18.07;;;5.00;99.90;;;;;;4953991;28;38648;-78
2022/04/27 05:25:20;;;;;;;30.30;18.57;;;5.20;99.90;;;;;;4956837;28;38707;-78
2022/04/27 05:27:46;;;;;;;31.80;19.63;;;5.30;99.90;;;;;;4940325;28;39171;-78
2022/04/27 05:32:57;;;;;;;33.77;20.17;;;5.80;99.90;;;;;;4945036;28;39462;-78
2022/04/27 05:35:23;;;;;;;27.87;16.70;;;6.10;99.90;;;;;;4938939;28;40156;-78
2022/04/27 05:37:50;;;;;;;28.07;17.43;;;6.40;99.90;;;;;;4960457;28;38556;-78
2022/04/27 05:40:16;;;;;;;35.80;19.37;;;6.60;99.90;;;;;;4941466;28;37506;-78
2022/04/27 05:42:42;;;;;;;30.20;17.50;;;6.80;99.90;;;;;;4959860;28;38901;-78
2022/04/27 05:45:09;;;;;;;26.73;17.80;;;7.00;99.90;;;;;;4959013;28;38721;-79
2022/04/27 05:47:35;;;;;;;30.07;18.73;;;7.20;99.90;;;;;;4961349;28;38867;-76
2022/04/27 05:50:04;;;;;;;25.07;16.77;;;7.40;99.90;;;;;;4943200;28;37913;-77
2022/04/27 05:52:31;;;;;;;27.23;17.53;;;7.40;99.90;;;;;;4942613;28;39177;-76
2022/04/27 05:54:57;;;;;;;26.47;17.23;;;7.50;99.90;;;;;;4923650;28;40737;-76
2022/04/27 05:57:23;;;;;;;27.87;16.53;;;7.70;99.90;;;;;;4943158;28;38715;-77
2022/04/27 05:59:49;;;;;;;27.23;17.20;;;7.90;99.90;;;;;;4956255;28;37311;-75
2022/04/27 06:02:15;;;;;;;27.70;17.40;;;7.90;99.90;;;;;;4944703;28;39442;-76
2022/04/27 06:04:42;;;;;;;29.63;17.20;;;8.10;99.90;;;;;;4961048;28;38937;-76
2022/04/27 06:07:08;;;;;;;23.80;16.83;;;8.10;99.90;;;;;;4936711;28;40191;-76
2022/04/27 06:09:34;;;;;;;21.57;15.77;;;8.20;99.90;;;;;;4938234;28;36457;-76
2022/04/27 06:12:01;;;;;;;21.97;14.73;;;8.30;99.90;;;;;;4923953;28;41179;-77
2022/04/27 06:14:27;;;;;;;23.17;15.10;;;8.40;99.90;;;;;;4931456;28;48846;-76
2022/04/27 06:16:53;;;;;;;23.03;16.37;;;8.60;99.90;;;;;;4931072;28;37544;-76
2022/04/27 06:19:19;;;;;;;24.55;15.73;;;8.80;99.90;;;;;;4933089;28;38223;-76
2022/04/27 06:21:45;;;;;;;20.48;14.70;;;9.00;99.90;;;;;;4940085;28;38693;-76
2022/04/27 06:24:11;;;;;;;19.52;13.52;;;9.20;99.90;;;;;;4916681;28;39349;-76
2022/04/27 06:26:37;;;;;;;17.98;13.35;;;9.30;99.90;;;;;;4922626;28;40625;-76
2022/04/27 06:29:03;;;;;;;15.98;12.75;;;9.40;99.90;;;;;;4918329;28;37786;-77
2022/04/27 06:31:30;;;;;;;16.33;12.07;;;9.50;99.90;;;;;;4923116;28;41227;-76
2022/04/27 06:33:57;;;;;;;16.35;11.60;;;9.60;99.90;;;;;;4936082;28;39753;-77
2022/04/27 06:36:23;;;;;;;12.15;10.40;;;9.70;99.90;;;;;;4943103;28;38243;-76
2022/04/27 06:38:50;;;;;;;16.73;9.90;;;9.90;99.90;;;;;;4919669;28;39134;-77
2022/04/27 06:41:16;;;;;;;12.93;10.40;;;9.80;99.90;;;;;;4935730;28;39282;-78
2022/04/27 06:43:42;;;;;;;12.70;8.82;;;10.00;99.90;;;;;;4932223;28;39682;-77
2022/04/27 06:46:08;;;;;;;12.77;8.65;;;10.10;99.90;;;;;;4946858;28;39049;-77
2022/04/27 06:48:34;;;;;;;13.93;7.38;;;10.30;99.90;;;;;;4934890;28;39030;-78
2022/04/27 06:51:01;;;;;;;8.55;6.28;;;10.40;99.90;;;;;;4929071;28;39617;-77
2022/04/27 06:53:27;;;;;;;8.25;6.55;;;10.30;99.90;;;;;;4944859;28;48858;-77
2022/04/27 06:55:53;;;;;;;11.63;6.07;;;10.30;99.90;;;;;;4944169;28;38607;-77
2022/04/27 06:58:19;;;;;;;11.75;5.97;;;10.40;99.90;;;;;;4926231;28;38686;-78
2022/04/27 07:00:45;;;;;;;6.05;5.30;;;10.50;99.90;;;;;;4944837;28;39747;-78
2022/04/27 07:03:12;;;;;;;7.03;4.53;;;10.50;99.90;;;;;;4936252;28;39857;-78
2022/04/27 07:05:38;;;;;;;10.40;3.63;;;10.50;99.90;;;;;;4926525;28;38854;-77
2022/04/27 07:08:06;;;;;;;6.88;4.18;;;10.60;99.90;;;;;;4924710;28;35198;-77
2022/04/27 07:10:38;;;;;;;6.80;4.10;;;10.70;99.90;;;;;;4910891;28;39670;-79
2022/04/27 07:13:05;;;;;;;6.95;4.75;;;10.80;99.90;;;;;;4949008;28;38322;-77
2022/04/27 07:15:32;;;;;;;4.88;4.07;;;11.10;99.90;;;;;;4932163;28;38091;-78
2022/04/27 07:17:58;;;;;;;5.63;3.10;;;11.20;99.90;;;;;;4937134;28;37105;-80
2022/04/27 07:20:24;;;;;;;4.40;2.65;;;11.30;99.90;;;;;;4940320;28;40367;-79
2022/04/27 07:22:50;;;;;;;5.05;3.55;;;11.30;99.90;;;;;;4928015;28;39599;-78
2022/04/27 07:25:18;;;;;;;5.47;3.83;;;11.30;99.90;;;;;;4935191;28;40363;-79
2022/04/27 07:27:45;;;;;;;5.75;3.90;;;11.40;99.90;;;;;;4940803;28;37422;-79
2022/04/27 07:30:12;;;;;;;6.63;4.25;;;11.40;99.90;;;;;;4937735;28;39786;-79
2022/04/27 07:32:38;;;;;;;6.57;3.90;;;11.60;99.90;;;;;;4946093;28;39248;-79
2022/04/27 07:35:05;;;;;;;3.92;3.20;;;11.60;99.90;;;;;;4945834;28;37406;-79
2022/04/27 07:37:32;;;;;;;5.40;3.88;;;11.60;99.90;;;;;;4954653;28;37539;-80
2022/04/27 07:39:58;;;;;;;4.43;3.17;;;11.80;99.90;;;;;;4972154;28;39079;-79
2022/04/27 07:42:24;;;;;;;2.53;2.33;;;12.10;99.90;;;;;;4948704;28;40034;-79
2022/04/27 07:44:50;;;;;;;5.38;2.88;;;12.00;99.90;;;;;;4959009;28;39195;-79
2022/04/27 07:47:16;;;;;;;5.40;2.80;;;12.20;99.90;;;;;;4943358;28;37888;-79
2022/04/27 07:49:44;;;;;;;3.45;2.33;;;12.40;99.90;;;;;;4965164;28;38707;-79
2022/04/27 07:52:10;;;;;;;4.75;2.58;;;12.40;99.90;;;;;;4959901;28;38979;-79
2022/04/27 07:54:36;;;;;;;5.82;2.60;;;12.30;99.90;;;;;;4960317;28;38680;-80
2022/04/27 07:57:02;;;;;;;3.90;2.25;;;12.40;99.90;;;;;;4940025;28;36872;-80
2022/04/27 07:59:29;;;;;;;2.67;2.30;;;12.50;99.90;;;;;;4946923;28;39255;-80
2022/04/27 08:01:55;;;;;;;7.25;2.97;;;12.50;99.90;;;;;;4939931;28;38418;-80
2022/04/27 08:04:21;;;;;;;5.32;2.13;;;12.40;99.90;;;;;;4955161;28;38804;-80
2022/04/27 08:06:47;;;;;;;3.33;1.88;;;12.30;99.90;;;;;;4951824;28;37144;-80
2022/04/27 08:09:14;;;;;;;3.50;1.70;;;12.40;99.90;;;;;;4958279;28;38489;-79
2022/04/27 08:11:41;;;;;;;2.80;1.70;;;12.40;99.90;;;;;;4941615;28;39100;-79
2022/04/27 08:14:07;;;;;;;3.28;1.60;;;12.60;99.90;;;;;;4963950;28;38537;-79
2022/04/27 08:16:33;;;;;;;4.05;1.30;;;12.50;99.90;;;;;;4959235;28;38186;-79
2022/04/27 08:18:59;;;;;;;3.78;1.50;;;12.40;99.90;;;;;;4955672;28;38584;-79
2022/04/27 08:21:27;;;;;;;3.85;1.40;;;12.50;99.90;;;;;;4938849;28;43264;-79
2022/04/27 08:23:53;;;;;;;2.65;1.60;;;12.70;99.90;;;;;;4955544;28;38164;-79
2022/04/27 08:26:19;;;;;;;3.05;1.55;;;12.80;99.90;;;;;;4952791;28;38140;-79
2022/04/27 08:28:45;;;;;;;3.65;2.20;;;12.70;99.90;;;;;;4954895;28;39483;-79
2022/04/27 08:31:14;;;;;;;3.78;2.10;;;12.60;99.90;;;;;;4953887;28;39567;-79
2022/04/27 08:33:40;;;;;;;5.47;2.88;;;12.60;99.90;;;;;;4936298;28;38920;-79
2022/04/27 08:36:07;;;;;;;7.63;3.67;;;12.60;99.90;;;;;;4939537;28;38791;-79
2022/04/27 08:38:34;;;;;;;6.22;3.45;;;12.70;99.90;;;;;;4934881;28;39653;-79
2022/04/27 08:41:00;;;;;;;6.20;4.38;;;12.50;99.90;;;;;;4955382;28;38686;-79
2022/04/27 08:43:26;;;;;;;5.60;4.05;;;12.30;99.90;;;;;;4945001;28;39570;-79
2022/04/27 08:45:55;;;;;;;6.57;4.15;;;12.50;99.90;;;;;;4959529;28;37661;-80
2022/04/27 08:48:22;;;;;;;10.68;3.95;;;12.50;99.90;;;;;;4965141;28;38817;-79
2022/04/27 08:50:48;;;;;;;4.22;3.30;;;12.60;99.90;;;;;;4930892;28;40077;-79
2022/04/27 08:53:15;;;;;;;4.63;3.58;;;12.60;99.90;;;;;;4959971;28;38614;-80
2022/04/27 08:55:41;;;;;;;4.72;3.35;;;12.50;99.90;;;;;;4955791;28;37933;-79
2022/04/27 08:58:12;;;;;;;7.22;3.42;;;12.60;99.90;;;;;;4960222;28;38802;-79
2022/04/27 09:00:38;;;;;;;4.80;3.50;;;12.80;99.90;;;;;;4959413;28;39444;-79
2022/04/27 09:03:23;;;;;;;3.80;2.88;;;13.00;99.90;;;;;;4937767;28;39013;-79
2022/04/27 09:05:52;;;;;;;6.70;3.85;;;13.20;99.90;;;;;;4958430;28;37869;-79
2022/04/27 09:08:19;;;;;;;3.22;1.80;;;13.50;99.90;;;;;;4957591;28;38577;-79
2022/04/27 09:10:45;;;;;;;3.30;1.73;;;13.60;99.90;;;;;;4941772;28;40383;-79
2022/04/27 09:13:12;;;;;;;2.40;1.50;;;13.80;99.90;;;;;;4959400;28;38848;-76
2022/04/27 09:15:39;;;;;;;1.90;1.52;;;14.00;99.90;;;;;;4940322;28;37695;-77
2022/04/27 09:21:02;;;;;;;2.03;1.40;;;14.60;99.90;;;;;;4963324;28;39328;-78
2022/04/27 09:23:37;;;;;;;1.73;1.40;;;15.10;99.90;;;;;;4959814;28;48609;-79
2022/04/27 09:26:22;;;;;;;4.03;1.67;;;14.80;99.90;;;;;;4927892;28;38212;-78
2022/04/27 09:28:53;;;;;;;4.45;1.67;;;14.50;99.90;;;;;;4963684;28;40967;-78
2022/04/27 09:31:33;;;;;;;2.65;1.58;;;14.10;99.90;;;;;;4965971;28;38659;-79
2022/04/27 09:34:01;;;;;;;2.03;1.48;;;13.90;99.90;;;;;;4958325;28;38681;-78
2022/04/27 09:36:27;;;;;;;2.67;1.30;;;13.90;99.90;;;;;;4965372;28;36969;-78
2022/04/27 09:38:54;;;;;;;2.50;1.58;;;13.80;99.90;;;;;;4949843;28;38211;-78
2022/04/27 09:41:40;;;;;;;2.70;1.70;;;13.90;99.90;;;;;;4967761;28;38871;-79
2022/04/27 09:44:06;;;;;;;2.60;1.90;;;13.90;99.90;;;;;;4948805;28;38115;-80
2022/04/27 09:46:40;;;;;;;3.38;2.55;;;13.60;99.90;;;;;;4944527;28;37517;-79
2022/04/27 09:49:07;;;;;;;4.60;1.83;;;13.70;99.90;;;;;;4962880;28;38822;-78
2022/04/27 09:51:35;;;;;;;2.53;1.75;;;14.00;99.90;;;;;;4963323;28;38183;-77
2022/04/27 09:54:03;;;;;;;3.55;1.85;;;14.20;99.90;;;;;;4951282;28;37316;-78
2022/04/27 09:56:34;;;;;;;3.42;1.75;;;14.30;99.90;;;;;;4960854;28;48622;-79
2022/04/27 09:59:11;;;;;;;2.22;1.55;;;14.20;99.90;;;;;;4962532;28;40358;-79
2022/04/27 10:01:38;;;;;;;3.50;1.30;;;13.90;99.90;;;;;;4930390;28;47212;-79
2022/04/27 10:04:05;;;;;;;2.65;1.45;;;14.10;99.90;;;;;;4960304;28;39335;-79
2022/04/27 10:06:32;;;;;;;6.78;1.77;;;14.20;99.90;;;;;;4944035;28;37559;-79
2022/04/27 10:09:03;;;;;;;4.38;1.52;;;14.00;99.90;;;;;;4945561;28;37977;-79
2022/04/27 10:11:33;;;;;;;2.83;1.03;;;14.00;99.90;;;;;;4961300;28;48250;-78
2022/04/27 10:14:00;;;;;;;2.92;1.40;;;14.00;99.90;;;;;;4946697;28;40129;-78
2022/04/27 10:16:27;;;;;;;3.65;1.40;;;13.80;99.90;;;;;;4945203;28;38009;-78
2022/04/27 10:18:53;;;;;;;3.38;1.38;;;13.60;99.90;;;;;;4943574;28;39520;-79
2022/04/27 10:21:57;;;;;;;5.38;1.88;;;13.80;99.90;;;;;;4935333;28;39122;-78
2022/04/27 10:24:41;;;;;;;3.20;1.42;;;13.90;99.90;;;;;;4960990;28;38326;-79
2022/04/27 10:27:42;;;;;;;3.53;1.70;;;13.70;99.90;;;;;;4945886;28;38023;-79
2022/04/27 10:30:10;;;;;;;2.75;1.73;;;13.80;99.90;;;;;;4956992;28;38689;-79
2022/04/27 10:32:43;;;;;;;2.95;1.52;;;13.70;99.90;;;;;;4955165;28;39129;-80
2022/04/27 10:35:12;;;;;;;4.63;2.10;;;13.70;99.90;;;;;;4959681;28;37285;-79
2022/04/27 10:38:07;;;;;;;3.30;2.00;;;13.60;99.90;;;;;;4946708;28;37845;-79
2022/04/27 10:40:42;;;;;;;2.28;1.67;;;13.60;99.90;;;;;;4935424;28;46886;-78
2022/04/27 10:43:13;;;;;;;4.40;2.50;;;13.40;99.90;;;;;;4939361;28;38236;-78
2022/04/27 10:45:41;;;;;;;5.15;2.55;;;13.40;99.90;;;;;;4957739;28;38302;-78
2022/04/27 10:48:20;;;;;;;3.72;2.08;;;13.40;99.90;;;;;;4957407;28;37137;-82
2022/04/27 10:51:07;;;;;;;7.28;2.35;;;13.30;99.90;;;;;;4940119;28;39553;-78
2022/04/27 10:53:41;;;;;;;4.72;2.38;;;13.50;99.90;;;;;;4940540;28;46754;-79
2022/04/27 10:56:26;;;;;;;4.25;2.70;;;13.70;99.90;;;;;;4958092;28;38161;-80
2022/04/27 10:58:53;;;;;;;4.10;2.50;;;13.40;99.90;;;;;;4938386;28;36472;-79
2022/04/27 11:01:24;;;;;;;4.45;2.35;;;13.60;99.90;;;;;;4950466;28;38853;-80
2022/04/27 11:03:55;;;;;;;3.90;2.58;;;13.90;99.90;;;;;;4954766;28;39490;-78
2022/04/27 11:06:22;;;;;;;2.43;2.10;;;13.90;99.90;;;;;;4933484;28;38610;-77
2022/04/27 11:09:08;;;;;;;4.60;2.63;;;13.80;99.90;;;;;;4949876;28;37116;-78
2022/04/27 11:11:53;;;;;;;3.53;2.20;;;14.00;99.90;;;;;;4941978;28;48655;-78
2022/04/27 11:14:21;;;;;;;3.63;1.98;;;14.20;99.90;;;;;;4923293;28;38940;-78
2022/04/27 11:16:48;;;;;;;3.65;1.92;;;14.40;99.90;;;;;;4953353;28;38299;-77
2022/04/27 11:19:14;;;;;;;4.15;2.00;;;14.40;99.90;;;;;;4950931;28;37769;-79
2022/04/27 11:21:40;;;;;;;5.18;1.77;;;14.10;99.90;;;;;;4937691;28;40492;-77
2022/04/27 11:24:11;;;;;;;2.75;2.05;;;14.30;99.90;;;;;;4959287;28;38847;-78
2022/04/27 11:26:44;;;;;;;4.07;1.70;;;14.60;99.90;;;;;;4934969;28;38804;-77
2022/04/27 11:29:12;;;;;;;4.50;2.15;;;14.80;99.90;;;;;;4935214;28;36213;-78
2022/04/27 11:31:39;;;;;;;2.95;2.00;;;14.90;99.90;;;;;;4949164;28;38841;-77
2022/04/27 11:34:28;;;;;;;4.65;1.70;;;15.10;99.90;;;;;;4933875;28;36209;-79
2022/04/27 11:36:54;;;;;;;3.20;1.95;;;15.40;99.90;;;;;;4953251;28;37804;-77
2022/04/27 11:39:25;;;;;;;4.75;2.05;;;15.80;99.90;;;;;;4956057;28;35166;-79
2022/04/27 11:42:01;;;;;;;7.00;2.20;;;16.00;99.90;;;;;;4952421;28;38927;-77
2022/04/27 11:44:29;;;;;;;4.60;1.95;;;16.50;99.90;;;;;;4949126;28;48962;-79
2022/04/27 11:46:56;;;;;;;3.33;1.27;;;16.70;99.90;;;;;;4941278;28;37123;-78
2022/04/27 11:49:25;;;;;;;3.03;1.40;;;17.00;99.90;;;;;;4954827;28;38330;-78
2022/04/27 11:51:51;;;;;;;4.93;1.83;;;17.40;99.90;;;;;;4938931;28;39719;-77
2022/04/27 11:54:28;;;;;;;3.40;1.48;;;17.70;99.90;;;;;;4943058;28;40281;-78
2022/04/27 11:57:03;;;;;;;5.35;1.73;;;17.90;99.90;;;;;;4936775;28;38822;-77
2022/04/27 11:59:42;;;;;;;6.93;2.20;;;17.00;99.90;;;;;;4948963;28;48869;-78
2022/04/27 12:02:09;;;;;;;4.93;1.63;;;16.50;99.90;;;;;;4948124;28;38477;-80
2022/04/27 12:04:37;;;;;;;4.25;1.48;;;16.20;99.90;;;;;;4956688;28;39190;-79
2022/04/27 12:07:14;;;;;;;5.07;1.67;;;16.10;99.90;;;;;;4929437;28;40620;-79
2022/04/27 12:09:40;;;;;;;6.47;1.98;;;16.00;99.90;;;;;;4934702;28;36850;-78
2022/04/27 12:12:11;;;;;;;3.63;1.83;;;15.70;99.90;;;;;;4932358;28;40092;-81
2022/04/27 12:14:41;;;;;;;3.90;1.80;;;16.00;99.90;;;;;;4947858;28;38717;-78
2022/04/27 12:17:07;;;;;;;5.72;1.90;;;16.00;99.90;;;;;;4952931;28;39838;-78
2022/04/27 12:19:34;;;;;;;5.60;2.00;;;16.10;99.90;;;;;;4939643;28;38095;-78
2022/04/27 12:22:13;;;;;;;4.30;1.98;;;16.50;99.90;;;;;;4938079;28;40896;-78
2022/04/27 12:24:45;;;;;;;3.33;1.65;;;16.80;99.90;;;;;;4956642;28;48845;-78
2022/04/27 12:27:21;;;;;;;2.80;1.70;;;17.10;99.90;;;;;;4944642;28;39078;-79
2022/04/27 12:29:48;;;;;;;6.50;2.10;;;17.10;99.90;;;;;;4928690;28;38129;-80
2022/04/27 12:32:14;;;;;;;3.53;1.60;;;17.00;99.90;;;;;;4953795;28;38679;-79
2022/04/27 12:37:30;;;;;;;4.70;1.92;;;16.90;99.90;;;;;;4955980;28;40982;-79
2022/04/27 12:40:11;;;;;;;4.72;1.88;;;16.60;99.90;;;;;;4957396;28;37309;-79
2022/04/27 12:42:37;;;;;;;10.45;1.98;;;16.50;99.90;;;;;;4942381;28;48558;-79
2022/04/27 12:45:09;;;;;;;5.72;1.83;;;16.90;99.90;;;;;;4933130;28;36074;-79
2022/04/27 12:47:46;;;;;;;4.85;1.85;;;17.20;99.90;;;;;;4940269;28;38661;-80
2022/04/27 12:50:12;;;;;;;5.63;2.17;;;17.40;99.90;;;;;;4949996;28;38202;-77
2022/04/27 12:52:39;;;;;;;5.00;1.95;;;17.30;99.90;;;;;;4956728;28;38861;-80
2022/04/27 12:55:07;;;;;;;6.90;2.10;;;17.30;99.90;;;;;;4950231;28;38572;-79
2022/04/27 12:57:54;;;;;;;7.15;2.10;;;17.40;99.90;;;;;;4937223;28;39490;-82
2022/04/27 13:00:40;;;;;;;7.47;2.17;;;17.70;99.90;;;;;;4952630;28;38136;-75
2022/04/27 13:03:10;;;;;;;4.55;2.50;;;17.60;99.90;;;;;;4938124;28;39946;-78
2022/04/27 13:05:37;;;;;;;5.93;2.13;;;17.00;99.90;;;;;;4947182;28;39035;-76